Portada
METAR-TAF:

METAR-TAF

Aeroports :

Aeroport de Palma - Son Sant Joan

Palma, Espanya

latitud: 39-33N, longitud: 002-44E, altitud: 4 m

Observació

L'informe es va fer fa 14 hores i 52 minuts, a les 05:00 UTC
Vent 1 kt amb direcció variable
Temperatura 19°C
Humitat 88%
Pressió 1016 hPa
Visibilitat 10 km o més
Escasses núvols a una alçada de 2500 ft

METAR: LEPA 210500Z VRB01KT 9999 FEW025 19/17 Q1016 NOSIG

Hora: 21:52 (19:52 UTC)

Pronòstic

L'informe es va fer fa 14 hores i 52 minuts, a les 05:00 UTC
Pronòstic vàlid del 21 a les 06 UTC al 22 a les 06 UTC
Vent 4 kt amb direcció variable
Visibilitat 10 km o més
Escasses núvols a una alçada de 2500 ft
Evolucionant progressivament
l' 21 a les 07 UTC al 21 a les 09 UTC
Vent 10 kt del Nord-Est
Evolucionant progressivament
l' 21 a les 18 UTC al 21 a les 21 UTC
Vent 3 kt amb direcció variable

TAF: LEPA 210500Z 2106/2206 VRB04KT 9999 FEW025 TX34/2113Z TN21/2206Z BECMG 2107/2109 05010KT BECMG 2118/2121 VRB03KT

Observacions i pronòstics meteorològics de més de 4000 aeroports (METAR i TAF).

Les estacions disponibles són els punts grocs i vermells al mapa.

Posi el ratolí al punt desitjat per veure el nom de l'estació.

Feu clic per veure les observacions i els pronòstics meteorològics.

Per canviar el mapa: feu clic els botons verds amb una creu de color negre per apropar; al botó verd amb un guió per allunyar la imatge; o en les fletxes verdes per a mapes adjacents.


METAR-TAF: